createdAt,value
2022-11-16T00:00:04.435Z,13.35
2022-11-16T00:02:35.489Z,13.35
2022-11-16T00:05:05.729Z,13.55
2022-11-16T00:07:33.351Z,13.37
2022-11-16T00:10:01.289Z,13.26
2022-11-16T00:12:29.016Z,13.41
2022-11-16T00:14:56.744Z,13.49
2022-11-16T00:17:24.463Z,13.44
2022-11-16T00:19:53.501Z,13.59
2022-11-16T00:22:21.813Z,13.56
2022-11-16T00:24:49.596Z,13.43
2022-11-16T00:27:17.441Z,13.38
2022-11-16T00:29:46.429Z,13.42
2022-11-16T00:32:14.131Z,13.39
2022-11-16T00:34:41.793Z,13.36
2022-11-16T00:37:10.871Z,13.30
2022-11-16T00:39:38.839Z,13.31
2022-11-16T00:42:06.675Z,13.37
2022-11-16T00:44:34.343Z,13.39
2022-11-16T00:47:02.298Z,13.11
2022-11-16T00:49:29.977Z,13.07
2022-11-16T00:51:57.647Z,13.38
2022-11-16T00:54:26.914Z,13.26
2022-11-16T00:56:54.640Z,13.49
2022-11-16T00:59:22.315Z,13.24
2022-11-16T01:01:50.107Z,13.34
2022-11-16T01:04:17.848Z,13.18
2022-11-16T01:06:45.529Z,13.12
2022-11-16T01:09:13.249Z,13.28
2022-11-16T01:12:00.392Z,13.11
2022-11-16T01:14:30.329Z,13.18
2022-11-16T01:16:58.028Z,13.14
2022-11-16T01:19:25.784Z,13.17
2022-11-16T01:21:53.488Z,13.16
2022-11-16T01:24:21.458Z,12.97
2022-11-16T01:26:50.543Z,13.10
2022-11-16T01:29:18.743Z,13.23
2022-11-16T01:31:46.453Z,13.10
2022-11-16T01:34:14.345Z,13.11
2022-11-16T01:36:42.050Z,13.27
2022-11-16T01:39:12.818Z,13.20
2022-11-16T01:41:42.166Z,13.09
2022-11-16T01:44:58.759Z,13.09
2022-11-16T01:47:26.673Z,13.16
2022-11-16T01:50:00.642Z,13.10
2022-11-16T01:52:33.093Z,13.23
2022-11-16T01:55:02.508Z,13.25
2022-11-16T01:57:38.405Z,12.95
2022-11-16T02:00:12.082Z,13.02
2022-11-16T02:02:39.812Z,13.02
2022-11-16T02:05:10.577Z,13.15
2022-11-16T02:08:31.478Z,13.02
2022-11-16T02:11:23.923Z,12.89
2022-11-16T02:14:10.426Z,13.01
2022-11-16T02:16:53.231Z,13.15
2022-11-16T02:20:13.330Z,13.17
2022-11-16T02:23:08.024Z,13.19
2022-11-16T02:25:54.692Z,13.21
2022-11-16T02:28:43.456Z,12.97
2022-11-16T02:31:21.139Z,13.15
2022-11-16T02:33:52.983Z,13.16
2022-11-16T02:36:25.870Z,13.06
2022-11-16T02:39:01.930Z,13.11
2022-11-16T02:41:34.733Z,13.17
2022-11-16T02:44:12.976Z,13.26
2022-11-16T02:46:48.561Z,13.21
2022-11-16T02:49:20.525Z,13.40
2022-11-16T02:51:50.097Z,13.25
2022-11-16T02:54:21.879Z,13.31
2022-11-16T02:56:56.539Z,13.15
2022-11-16T02:59:30.352Z,12.92
2022-11-16T03:02:19.877Z,12.92
2022-11-16T03:04:53.109Z,13.14
2022-11-16T03:07:30.114Z,13.17
2022-11-16T03:09:59.984Z,12.98
2022-11-16T03:12:33.645Z,12.93
2022-11-16T03:15:06.174Z,13.03
2022-11-16T03:17:43.141Z,13.07
2022-11-16T03:20:16.081Z,12.99
2022-11-16T03:22:48.419Z,12.95
2022-11-16T03:25:20.403Z,13.01
2022-11-16T03:27:55.462Z,13.01
2022-11-16T03:30:26.416Z,13.21
2022-11-16T03:33:04.720Z,13.10
2022-11-16T03:35:40.068Z,13.14
2022-11-16T03:38:11.401Z,13.03
2022-11-16T03:40:42.058Z,13.07
2022-11-16T03:43:11.205Z,13.24
2022-11-16T03:45:39.537Z,13.24
2022-11-16T03:48:09.226Z,13.31
2022-11-16T03:50:36.955Z,13.46
2022-11-16T03:53:06.239Z,13.19
2022-11-16T03:55:33.944Z,13.20
2022-11-16T03:58:01.683Z,13.32
2022-11-16T04:00:29.546Z,13.28
2022-11-16T04:02:57.414Z,13.25
2022-11-16T04:05:44.128Z,13.25
2022-11-16T04:08:34.179Z,13.30
2022-11-16T04:11:19.839Z,13.28
2022-11-16T04:14:09.084Z,13.28
2022-11-16T04:16:55.281Z,13.43
2022-11-16T04:19:40.571Z,13.51
2022-11-16T04:22:35.255Z,13.32
2022-11-16T04:25:11.474Z,13.39
2022-11-16T04:27:56.773Z,13.55
2022-11-16T04:30:24.678Z,13.37
2022-11-16T04:33:21.720Z,13.41
2022-11-16T04:36:07.038Z,13.38
2022-11-16T04:38:36.939Z,13.41
2022-11-16T04:41:05.123Z,13.39
2022-11-16T04:43:32.049Z,13.28
2022-11-16T04:46:17.358Z,13.04
2022-11-16T04:48:45.056Z,13.25
2022-11-16T04:51:12.798Z,13.17
2022-11-16T04:53:41.853Z,13.45
2022-11-16T04:56:09.558Z,13.34
2022-11-16T04:58:37.812Z,13.21
2022-11-16T05:01:05.565Z,13.18
2022-11-16T05:03:33.350Z,13.06
2022-11-16T05:06:01.041Z,13.08
2022-11-16T05:08:29.256Z,13.23
2022-11-16T05:10:58.277Z,13.24
2022-11-16T05:13:26.013Z,13.28
2022-11-16T05:15:53.699Z,13.14
2022-11-16T05:18:21.619Z,13.17
2022-11-16T05:21:01.824Z,13.12
2022-11-16T05:23:55.289Z,13.14
2022-11-16T05:26:24.348Z,13.32
2022-11-16T05:28:52.069Z,13.05
2022-11-16T05:31:19.824Z,13.07
2022-11-16T05:33:47.523Z,13.22
2022-11-16T05:36:15.221Z,13.30
2022-11-16T05:38:42.943Z,13.30
2022-11-16T05:41:10.888Z,13.37
2022-11-16T05:43:39.981Z,13.43
2022-11-16T05:46:07.675Z,13.51
2022-11-16T05:48:35.602Z,13.70
2022-11-16T05:51:03.800Z,13.57
2022-11-16T05:53:31.513Z,13.40
2022-11-16T05:55:59.289Z,13.81
2022-11-16T05:58:27.073Z,13.49
2022-11-16T06:00:56.163Z,13.54
2022-11-16T06:03:24.894Z,13.49
2022-11-16T06:05:55.724Z,13.58
2022-11-16T06:08:23.557Z,13.43
2022-11-16T06:10:51.458Z,13.55
2022-11-16T06:13:19.319Z,13.47
2022-11-16T06:15:53.154Z,13.46
2022-11-16T06:18:22.410Z,13.64
2022-11-16T06:20:50.172Z,13.45
2022-11-16T06:23:17.960Z,13.55
2022-11-16T06:25:45.743Z,13.46
2022-11-16T06:28:14.159Z,13.81
2022-11-16T06:30:41.897Z,13.80
2022-11-16T06:33:09.703Z,13.55
2022-11-16T06:35:38.757Z,13.44
2022-11-16T06:38:06.578Z,13.68
2022-11-16T06:40:34.630Z,13.23
2022-11-16T06:43:04.652Z,13.52
2022-11-16T06:45:32.374Z,13.38
2022-11-16T06:48:00.092Z,13.59
2022-11-16T06:50:27.849Z,13.28
2022-11-16T06:52:56.871Z,13.49
2022-11-16T06:55:24.689Z,13.52
2022-11-16T06:57:52.437Z,13.33
2022-11-16T07:00:20.638Z,13.85
2022-11-16T07:02:48.436Z,13.67
2022-11-16T07:05:16.356Z,14.07
2022-11-16T07:07:44.131Z,14.19
2022-11-16T07:10:13.636Z,14.21
2022-11-16T07:12:41.422Z,14.23
2022-11-16T07:15:10.220Z,14.07
2022-11-16T07:17:39.510Z,14.18
2022-11-16T07:20:08.420Z,14.18
2022-11-16T07:22:36.249Z,14.22
2022-11-16T07:25:04.009Z,13.93
2022-11-16T07:27:33.060Z,14.03
2022-11-16T07:30:02.056Z,14.23
2022-11-16T07:32:31.187Z,14.20
2022-11-16T07:34:59.605Z,14.36
2022-11-16T07:37:27.637Z,14.31
2022-11-16T07:39:55.432Z,14.51
2022-11-16T07:42:23.211Z,14.30
2022-11-16T07:44:52.325Z,14.26
2022-11-16T07:47:20.579Z,13.89
2022-11-16T07:49:48.892Z,14.12
2022-11-16T07:52:16.714Z,14.02
2022-11-16T07:54:44.489Z,13.89
2022-11-16T07:57:12.210Z,13.91
2022-11-16T07:59:39.926Z,13.92
2022-11-16T08:02:10.997Z,14.04
2022-11-16T08:04:39.976Z,14.19
2022-11-16T08:07:07.728Z,13.90
2022-11-16T08:09:38.039Z,14.14
2022-11-16T08:12:06.096Z,14.29
2022-11-16T08:14:33.817Z,13.85
2022-11-16T08:17:03.477Z,14.16
2022-11-16T08:19:33.137Z,13.55
2022-11-16T08:22:01.187Z,13.55
2022-11-16T08:24:29.190Z,13.46
2022-11-16T08:26:58.687Z,13.69
2022-11-16T08:29:26.709Z,13.46
2022-11-16T08:31:54.587Z,13.70
2022-11-16T08:34:22.782Z,13.71
2022-11-16T08:36:52.053Z,13.97
2022-11-16T08:39:19.877Z,14.48
2022-11-16T08:41:47.589Z,14.56
2022-11-16T08:44:16.273Z,15.08
2022-11-16T08:46:44.028Z,15.40
2022-11-16T08:49:11.766Z,15.50
2022-11-16T08:51:39.581Z,15.67
2022-11-16T08:54:09.376Z,15.27
2022-11-16T08:56:37.241Z,15.55
2022-11-16T08:59:05.055Z,15.46
2022-11-16T09:01:33.679Z,15.35
2022-11-16T09:04:01.649Z,15.09
2022-11-16T09:06:29.671Z,14.91
2022-11-16T09:08:57.975Z,14.63
2022-11-16T09:11:27.697Z,14.45
2022-11-16T09:13:57.629Z,14.43
2022-11-16T09:16:27.785Z,14.22
2022-11-16T09:18:56.210Z,13.99
2022-11-16T09:21:26.552Z,13.90
2022-11-16T09:23:56.065Z,13.68
2022-11-16T09:26:26.214Z,13.86
2022-11-16T09:28:58.158Z,14.49
2022-11-16T09:31:27.864Z,14.53
2022-11-16T09:33:58.100Z,14.44
2022-11-16T09:36:27.292Z,14.56
2022-11-16T09:39:29.432Z,14.12
2022-11-16T09:42:12.637Z,14.22
2022-11-16T09:44:59.258Z,14.29
2022-11-16T09:47:41.915Z,13.94
2022-11-16T09:50:28.886Z,14.39
2022-11-16T09:53:07.095Z,14.09
2022-11-16T09:55:43.527Z,13.92
2022-11-16T09:58:20.384Z,13.87
2022-11-16T10:01:04.703Z,13.55
2022-11-16T10:03:44.366Z,13.71
2022-11-16T10:06:23.460Z,13.34
2022-11-16T10:08:56.504Z,13.45
2022-11-16T10:11:52.752Z,13.07
2022-11-16T10:14:57.426Z,12.98
2022-11-16T10:17:52.044Z,13.23
2022-11-16T10:20:46.382Z,13.04
2022-11-16T10:23:31.702Z,13.04
2022-11-16T10:26:18.401Z,13.04
2022-11-16T10:29:10.117Z,13.18
2022-11-16T10:32:02.455Z,13.40
2022-11-16T10:34:46.254Z,13.63
2022-11-16T10:37:16.133Z,13.63
2022-11-16T10:39:44.174Z,13.77
2022-11-16T10:42:18.074Z,14.14
2022-11-16T10:44:51.651Z,13.70
2022-11-16T10:47:30.812Z,13.95
2022-11-16T10:50:07.406Z,13.97
2022-11-16T10:52:35.460Z,14.04
2022-11-16T10:55:03.243Z,14.20
2022-11-16T10:57:55.757Z,14.13
2022-11-16T11:00:42.049Z,14.37
2022-11-16T11:03:11.847Z,14.25
2022-11-16T11:05:52.705Z,13.96
2022-11-16T11:08:31.374Z,14.10
2022-11-16T11:11:22.849Z,13.89
2022-11-16T11:14:09.723Z,14.21
2022-11-16T11:16:37.978Z,14.16
2022-11-16T11:19:19.681Z,14.14
2022-11-16T11:21:49.826Z,14.33
2022-11-16T11:27:06.919Z,14.58
2022-11-16T11:29:40.725Z,14.67
2022-11-16T11:32:22.395Z,14.25
2022-11-16T11:34:55.701Z,14.66
2022-11-16T11:37:30.713Z,14.53
2022-11-16T11:40:22.798Z,14.80
2022-11-16T11:43:00.493Z,14.62
2022-11-16T11:45:45.789Z,14.83
2022-11-16T11:48:33.065Z,14.34
2022-11-16T11:51:12.030Z,14.37
2022-11-16T11:53:55.184Z,14.38
2022-11-16T11:56:24.083Z,14.37
2022-11-16T11:58:52.655Z,14.35
2022-11-16T12:01:52.446Z,14.26
2022-11-16T12:05:20.490Z,14.55
2022-11-16T12:08:15.312Z,14.93
2022-11-16T12:10:52.871Z,15.14
2022-11-16T12:13:51.545Z,15.01
2022-11-16T12:16:33.513Z,15.04
2022-11-16T12:19:29.148Z,14.72
2022-11-16T12:22:15.747Z,14.88
2022-11-16T12:25:07.307Z,14.67
2022-11-16T12:27:53.024Z,14.83
2022-11-16T12:30:24.229Z,15.05
2022-11-16T12:33:23.588Z,14.78
2022-11-16T12:36:03.400Z,14.92
2022-11-16T12:38:50.810Z,15.12
2022-11-16T12:41:56.593Z,15.53
2022-11-16T12:44:46.773Z,15.43
2022-11-16T12:47:30.105Z,15.46
2022-11-16T12:50:19.217Z,15.42
2022-11-16T12:53:11.396Z,15.17
2022-11-16T12:55:50.664Z,15.46
2022-11-16T12:58:33.442Z,15.57
2022-11-16T13:01:18.373Z,16.27
2022-11-16T13:03:53.533Z,17.09
2022-11-16T13:06:27.462Z,17.12
2022-11-16T13:09:08.636Z,17.12
2022-11-16T13:11:41.419Z,16.53
2022-11-16T13:14:18.950Z,16.56
2022-11-16T13:16:50.229Z,16.44
2022-11-16T13:19:19.367Z,16.64
2022-11-16T13:21:59.851Z,16.43
2022-11-16T13:24:47.747Z,16.86
2022-11-16T13:27:31.280Z,17.22
2022-11-16T13:30:06.166Z,17.01
2022-11-16T13:33:04.230Z,17.49
2022-11-16T13:35:32.206Z,18.17
2022-11-16T13:38:00.023Z,18.04
2022-11-16T13:40:32.339Z,18.22
2022-11-16T13:43:17.593Z,18.46
2022-11-16T13:45:56.995Z,17.86
2022-11-16T13:48:33.263Z,16.47
2022-11-16T13:51:05.159Z,16.45
2022-11-16T13:56:29.233Z,16.85
2022-11-16T13:58:59.447Z,16.90
2022-11-16T14:01:58.731Z,17.18
2022-11-16T14:04:42.911Z,17.12
2022-11-16T14:07:42.792Z,17.23
2022-11-16T14:10:12.629Z,17.22
2022-11-16T14:12:52.661Z,16.97
2022-11-16T14:15:22.775Z,16.99
2022-11-16T14:17:57.579Z,16.67
2022-11-16T14:20:56.244Z,15.99
2022-11-16T14:23:36.973Z,15.75
2022-11-16T14:26:24.065Z,15.68
2022-11-16T14:29:15.266Z,15.36
2022-11-16T14:31:52.181Z,15.31
2022-11-16T14:34:25.304Z,15.15
2022-11-16T14:36:54.359Z,14.99
2022-11-16T14:39:38.401Z,14.78
2022-11-16T14:42:17.649Z,14.81
2022-11-16T14:44:46.231Z,14.84
2022-11-16T14:47:26.744Z,14.42
2022-11-16T14:49:57.268Z,14.25
2022-11-16T14:52:36.124Z,14.41
2022-11-16T14:55:09.275Z,14.35
2022-11-16T14:57:37.525Z,14.19
2022-11-16T15:00:12.491Z,14.29
2022-11-16T15:02:42.232Z,14.09
2022-11-16T15:05:18.661Z,14.19
2022-11-16T15:07:52.271Z,14.23
2022-11-16T15:10:24.534Z,14.35
2022-11-16T15:12:55.618Z,14.15
2022-11-16T15:15:27.768Z,14.13
2022-11-16T15:18:12.848Z,14.03
2022-11-16T15:20:51.335Z,13.94
2022-11-16T15:23:23.787Z,13.71
2022-11-16T15:25:55.373Z,14.00
2022-11-16T15:28:27.168Z,13.68
2022-11-16T15:30:58.552Z,13.43
2022-11-16T15:33:30.794Z,13.45
2022-11-16T15:36:00.805Z,13.59
2022-11-16T15:38:32.304Z,13.38
2022-11-16T15:41:04.504Z,13.40
2022-11-16T15:43:45.216Z,13.39
2022-11-16T15:46:25.894Z,13.11
2022-11-16T15:48:54.837Z,12.89
2022-11-16T15:51:27.260Z,13.14
2022-11-16T15:53:56.669Z,13.16
2022-11-16T15:56:33.385Z,12.86
2022-11-16T15:59:12.401Z,12.84
2022-11-16T16:01:44.285Z,12.73
2022-11-16T16:04:17.843Z,12.87
2022-11-16T16:06:50.800Z,12.71
2022-11-16T16:09:27.065Z,12.77
2022-11-16T16:11:57.628Z,12.65
2022-11-16T16:14:30.217Z,12.81
2022-11-16T16:16:59.454Z,12.90
2022-11-16T16:19:43.266Z,12.90
2022-11-16T16:22:26.397Z,12.62
2022-11-16T16:24:55.742Z,12.66
2022-11-16T16:27:27.238Z,12.30
2022-11-16T16:30:00.171Z,12.14
2022-11-16T16:32:31.077Z,12.37
2022-11-16T16:35:03.537Z,12.67
2022-11-16T16:37:35.688Z,12.25
2022-11-16T16:40:03.496Z,12.02
2022-11-16T16:42:31.318Z,11.86
2022-11-16T16:45:02.399Z,12.10
2022-11-16T16:47:30.349Z,12.02
2022-11-16T16:49:58.046Z,11.97
2022-11-16T16:52:25.795Z,11.99
2022-11-16T16:54:54.861Z,12.13
2022-11-16T16:57:22.616Z,11.86
2022-11-16T16:59:50.694Z,11.76
2022-11-16T17:02:19.607Z,11.63
2022-11-16T17:04:48.406Z,11.63
2022-11-16T17:07:17.173Z,11.66
2022-11-16T17:09:45.580Z,11.80
2022-11-16T17:12:15.093Z,11.77
2022-11-16T17:14:42.931Z,11.75
2022-11-16T17:17:10.689Z,11.75
2022-11-16T17:19:38.494Z,11.64
2022-11-16T17:22:06.505Z,11.60
2022-11-16T17:24:35.952Z,11.61
2022-11-16T17:27:03.733Z,11.36
2022-11-16T17:29:32.846Z,11.40
2022-11-16T17:32:00.646Z,11.47
2022-11-16T17:34:28.466Z,11.52
2022-11-16T17:36:56.992Z,11.35
2022-11-16T17:39:24.781Z,11.52
2022-11-16T17:41:53.064Z,11.48
2022-11-16T17:44:22.141Z,11.73
2022-11-16T17:46:51.464Z,11.69
2022-11-16T17:49:19.198Z,11.58
2022-11-16T17:51:46.925Z,11.73
2022-11-16T17:54:14.711Z,11.30
2022-11-16T17:56:42.541Z,11.40
2022-11-16T17:59:10.424Z,11.46
2022-11-16T18:01:39.410Z,11.56
2022-11-16T18:04:08.657Z,11.44
2022-11-16T18:06:36.480Z,11.60
2022-11-16T18:09:04.286Z,11.45
2022-11-16T18:11:31.994Z,11.36
2022-11-16T18:14:02.081Z,11.27
2022-11-16T18:16:33.121Z,11.52
2022-11-16T18:19:03.495Z,11.64
2022-11-16T18:21:38.818Z,10.99
2022-11-16T18:24:07.505Z,11.17
2022-11-16T18:26:35.498Z,11.37
2022-11-16T18:29:03.689Z,11.35
2022-11-16T18:31:32.909Z,11.67
2022-11-16T18:34:02.150Z,11.48
2022-11-16T18:36:30.066Z,11.22
2022-11-16T18:38:59.148Z,11.23
2022-11-16T18:41:30.583Z,11.10
2022-11-16T18:44:00.958Z,10.91
2022-11-16T18:46:31.938Z,10.83
2022-11-16T18:49:00.862Z,11.10
2022-11-16T18:51:30.051Z,10.90
2022-11-16T18:53:59.345Z,10.91
2022-11-16T18:56:27.878Z,10.90
2022-11-16T18:58:55.704Z,11.13
2022-11-16T19:01:27.335Z,11.06
2022-11-16T19:04:00.040Z,10.94
2022-11-16T19:06:27.760Z,11.11
2022-11-16T19:08:59.604Z,11.00
2022-11-16T19:11:29.526Z,11.24
2022-11-16T19:14:01.026Z,11.14
2022-11-16T19:16:29.281Z,11.26
2022-11-16T19:18:57.759Z,10.96
2022-11-16T19:21:26.131Z,11.11
2022-11-16T19:23:56.459Z,11.00
2022-11-16T19:26:26.265Z,11.03
2022-11-16T19:28:56.126Z,11.12
2022-11-16T19:31:27.257Z,11.23
2022-11-16T19:33:56.101Z,11.18
2022-11-16T19:36:25.361Z,11.29
2022-11-16T19:38:53.598Z,11.00
2022-11-16T19:41:22.293Z,11.02
2022-11-16T19:43:52.379Z,11.09
2022-11-16T19:46:21.869Z,11.00
2022-11-16T19:48:50.269Z,10.79
2022-11-16T19:51:20.791Z,10.89
2022-11-16T19:53:49.429Z,10.91
2022-11-16T19:56:19.781Z,10.80
2022-11-16T19:58:48.084Z,10.87
2022-11-16T20:01:18.895Z,10.83
2022-11-16T20:03:51.181Z,10.78
2022-11-16T20:06:24.107Z,10.58
2022-11-16T20:08:55.745Z,10.59
2022-11-16T20:11:26.553Z,10.66
2022-11-16T20:13:57.067Z,10.74
2022-11-16T20:16:31.682Z,10.48
2022-11-16T20:19:06.153Z,10.28
2022-11-16T20:21:37.407Z,10.56
2022-11-16T20:24:08.628Z,10.58
2022-11-16T20:26:41.425Z,10.38
2022-11-16T20:29:14.011Z,10.16
2022-11-16T20:31:44.933Z,10.33
2022-11-16T20:34:16.487Z,10.20
2022-11-16T20:36:47.577Z,10.47
2022-11-16T20:39:18.288Z,10.19
2022-11-16T20:41:46.272Z,10.26
2022-11-16T20:44:19.005Z,9.85
2022-11-16T20:47:10.528Z,9.86
2022-11-16T20:49:39.649Z,9.87
2022-11-16T20:52:07.382Z,10.10
2022-11-16T20:54:35.156Z,10.18
2022-11-16T20:57:10.033Z,10.29
2022-11-16T20:59:37.854Z,10.04
2022-11-16T21:02:05.552Z,10.10
2022-11-16T21:04:33.288Z,10.07
2022-11-16T21:07:02.391Z,9.83
2022-11-16T21:09:50.393Z,9.81
2022-11-16T21:12:42.541Z,9.93
2022-11-16T21:19:16.896Z,9.95
2022-11-16T21:21:45.673Z,9.93
2022-11-16T21:24:14.834Z,9.99
2022-11-16T21:26:42.549Z,9.95
2022-11-16T21:29:10.252Z,10.08
2022-11-16T21:31:38.252Z,9.82
2022-11-16T21:34:07.440Z,9.71
2022-11-16T21:36:36.139Z,9.63
2022-11-16T21:39:04.380Z,9.76
2022-11-16T21:41:33.860Z,9.71
2022-11-16T21:44:01.597Z,9.71
2022-11-16T21:46:29.307Z,9.64
2022-11-16T21:48:57.287Z,9.64
2022-11-16T21:51:27.777Z,9.53
2022-11-16T21:53:56.129Z,9.55
2022-11-16T21:56:26.563Z,9.61
2022-11-16T21:58:55.733Z,9.77
2022-11-16T22:01:25.081Z,9.85
2022-11-16T22:04:07.694Z,9.71
2022-11-16T22:06:56.814Z,9.79
2022-11-16T22:09:24.623Z,9.91
2022-11-16T22:11:52.415Z,9.88
2022-11-16T22:14:21.477Z,9.75
2022-11-16T22:16:49.229Z,9.78
2022-11-16T22:19:16.926Z,9.76
2022-11-16T22:21:44.818Z,9.76
2022-11-16T22:24:12.497Z,9.96
2022-11-16T22:26:45.454Z,9.87
2022-11-16T22:29:13.152Z,9.93
2022-11-16T22:31:42.365Z,9.86
2022-11-16T22:34:32.020Z,10.03
2022-11-16T22:36:59.823Z,9.90
2022-11-16T22:39:27.539Z,10.03
2022-11-16T22:41:55.330Z,9.97
2022-11-16T22:44:23.061Z,9.88
2022-11-16T22:48:04.443Z,9.86
2022-11-16T22:50:40.597Z,10.04
2022-11-16T22:53:08.486Z,9.84
2022-11-16T22:55:37.750Z,10.04
2022-11-16T22:58:06.084Z,10.10
2022-11-16T23:00:40.573Z,9.97
2022-11-16T23:03:09.942Z,10.03
2022-11-16T23:05:37.767Z,10.23
2022-11-16T23:08:06.977Z,10.18
2022-11-16T23:10:54.668Z,10.19
2022-11-16T23:13:45.103Z,10.32
2022-11-16T23:16:12.849Z,10.34
2022-11-16T23:18:40.614Z,10.17
2022-11-16T23:21:25.888Z,10.23
2022-11-16T23:24:21.410Z,10.33
2022-11-16T23:27:07.115Z,10.35
2022-11-16T23:29:35.491Z,10.37
2022-11-16T23:32:03.461Z,10.23
2022-11-16T23:34:31.205Z,10.47
2022-11-16T23:37:03.913Z,10.51
2022-11-16T23:39:33.816Z,10.43
2022-11-16T23:42:19.138Z,10.49
2022-11-16T23:44:47.160Z,10.59
2022-11-16T23:47:15.013Z,10.31
2022-11-16T23:49:43.097Z,10.46
2022-11-16T23:52:11.810Z,10.41
2022-11-16T23:54:41.043Z,10.43
2022-11-16T23:57:09.122Z,10.48
2022-11-16T23:59:36.855Z,10.68
